sensor_id;sensor_type;location;lat;lon;timestamp;pressure;altitude;pressure_sealevel;temperature;humidity
85197;BME280;75566;42.698;23.346;2024-02-15T00:01:30;95936.50;;;3.04;58.96
85197;BME280;75566;42.698;23.346;2024-02-15T00:03:55;95935.28;;;3.05;59.70
85197;BME280;75566;42.698;23.346;2024-02-15T00:06:21;95935.16;;;2.94;59.65
85197;BME280;75566;42.698;23.346;2024-02-15T00:08:46;95948.25;;;3.01;59.70
85197;BME280;75566;42.698;23.346;2024-02-15T00:11:12;95937.16;;;2.99;59.86
85197;BME280;75566;42.698;23.346;2024-02-15T00:13:39;95937.84;;;2.94;59.22
85197;BME280;75566;42.698;23.346;2024-02-15T00:16:04;95939.06;;;2.93;60.04
85197;BME280;75566;42.698;23.346;2024-02-15T00:18:31;95936.91;;;2.97;59.42
85197;BME280;75566;42.698;23.346;2024-02-15T00:20:57;95947.72;;;2.97;59.18
85197;BME280;75566;42.698;23.346;2024-02-15T00:23:22;95946.69;;;2.95;59.94
85197;BME280;75566;42.698;23.346;2024-02-15T00:25:48;95942.78;;;2.96;59.55
85197;BME280;75566;42.698;23.346;2024-02-15T00:28:15;95947.63;;;2.92;59.85
85197;BME280;75566;42.698;23.346;2024-02-15T00:30:40;95951.69;;;3.02;59.96
85197;BME280;75566;42.698;23.346;2024-02-15T00:33:06;95947.63;;;3.12;58.73
85197;BME280;75566;42.698;23.346;2024-02-15T00:35:32;95951.75;;;3.08;59.25
85197;BME280;75566;42.698;23.346;2024-02-15T00:37:58;95958.88;;;3.05;59.14
85197;BME280;75566;42.698;23.346;2024-02-15T00:40:23;95953.56;;;2.96;59.83
85197;BME280;75566;42.698;23.346;2024-02-15T00:42:49;95955.44;;;3.04;59.25
85197;BME280;75566;42.698;23.346;2024-02-15T00:45:14;95952.72;;;3.04;59.02
85197;BME280;75566;42.698;23.346;2024-02-15T00:47:40;95956.09;;;2.99;58.91
85197;BME280;75566;42.698;23.346;2024-02-15T00:50:08;95956.09;;;2.99;59.15
85197;BME280;75566;42.698;23.346;2024-02-15T00:52:34;95954.34;;;2.96;59.71
85197;BME280;75566;42.698;23.346;2024-02-15T00:54:59;95943.53;;;2.96;59.17
85197;BME280;75566;42.698;23.346;2024-02-15T00:57:25;95957.50;;;2.95;60.06
85197;BME280;75566;42.698;23.346;2024-02-15T00:59:50;95949.78;;;2.88;59.62
85197;BME280;75566;42.698;23.346;2024-02-15T01:02:17;95949.75;;;3.02;59.79
85197;BME280;75566;42.698;23.346;2024-02-15T01:04:43;95954.34;;;2.96;59.20
85197;BME280;75566;42.698;23.346;2024-02-15T01:07:10;95944.72;;;2.95;59.23
85197;BME280;75566;42.698;23.346;2024-02-15T01:09:36;95951.63;;;2.96;58.90
85197;BME280;75566;42.698;23.346;2024-02-15T01:12:02;95947.16;;;2.93;60.10
85197;BME280;75566;42.698;23.346;2024-02-15T01:14:29;95950.06;;;2.90;59.31
85197;BME280;75566;42.698;23.346;2024-02-15T01:16:56;95952.75;;;2.90;60.09
85197;BME280;75566;42.698;23.346;2024-02-15T01:19:21;95942.72;;;2.90;59.42
85197;BME280;75566;42.698;23.346;2024-02-15T01:21:47;95946.97;;;2.97;59.99
85197;BME280;75566;42.698;23.346;2024-02-15T01:24:12;95942.38;;;3.03;59.56
85197;BME280;75566;42.698;23.346;2024-02-15T01:26:38;95951.56;;;2.91;59.86
85197;BME280;75566;42.698;23.346;2024-02-15T01:29:03;95948.84;;;2.91;59.79
85197;BME280;75566;42.698;23.346;2024-02-15T01:31:29;95944.94;;;2.92;59.48
85197;BME280;75566;42.698;23.346;2024-02-15T01:33:55;95945.34;;;2.84;59.94
85197;BME280;75566;42.698;23.346;2024-02-15T01:36:20;95941.53;;;2.76;60.29
85197;BME280;75566;42.698;23.346;2024-02-15T01:38:46;95949.38;;;2.74;60.23
85197;BME280;75566;42.698;23.346;2024-02-15T01:41:11;95945.88;;;2.89;59.68
85197;BME280;75566;42.698;23.346;2024-02-15T01:43:37;95950.66;;;2.79;60.04
85197;BME280;75566;42.698;23.346;2024-02-15T01:46:08;95946.06;;;2.85;59.45
85197;BME280;75566;42.698;23.346;2024-02-15T01:48:39;95950.66;;;2.79;59.71
85197;BME280;75566;42.698;23.346;2024-02-15T01:51:06;95945.16;;;2.88;59.63
85197;BME280;75566;42.698;23.346;2024-02-15T01:53:32;95949.66;;;2.76;60.02
85197;BME280;75566;42.698;23.346;2024-02-15T01:55:58;95953.84;;;2.77;59.79
85197;BME280;75566;42.698;23.346;2024-02-15T01:58:27;95947.69;;;2.77;60.01
85197;BME280;75566;42.698;23.346;2024-02-15T02:00:55;95951.34;;;2.74;59.73
85197;BME280;75566;42.698;23.346;2024-02-15T02:03:21;95950.56;;;2.53;60.43
85197;BME280;75566;42.698;23.346;2024-02-15T02:05:47;95949.63;;;2.56;60.95
85197;BME280;75566;42.698;23.346;2024-02-15T02:08:13;95956.78;;;2.59;60.53
85197;BME280;75566;42.698;23.346;2024-02-15T02:10:39;95956.84;;;2.64;59.95
85197;BME280;75566;42.698;23.346;2024-02-15T02:13:05;95948.75;;;2.64;60.45
85197;BME280;75566;42.698;23.346;2024-02-15T02:15:34;95958.72;;;2.73;60.02
85197;BME280;75566;42.698;23.346;2024-02-15T02:18:03;95959.81;;;2.67;60.63
85197;BME280;75566;42.698;23.346;2024-02-15T02:20:33;95967.41;;;2.62;60.32
85197;BME280;75566;42.698;23.346;2024-02-15T02:23:25;95967.94;;;2.67;60.39
85197;BME280;75566;42.698;23.346;2024-02-15T02:25:48;95960.69;;;2.58;60.67
85197;BME280;75566;42.698;23.346;2024-02-15T02:28:15;95960.78;;;2.63;60.51
85197;BME280;75566;42.698;23.346;2024-02-15T02:30:43;95960.22;;;2.59;60.67
85197;BME280;75566;42.698;23.346;2024-02-15T02:33:13;95956.44;;;2.51;60.85
85197;BME280;75566;42.698;23.346;2024-02-15T02:35:44;95965.81;;;2.56;61.39
85197;BME280;75566;42.698;23.346;2024-02-15T02:38:11;95973.00;;;2.59;60.88
85197;BME280;75566;42.698;23.346;2024-02-15T02:40:37;95962.19;;;2.59;60.92
85197;BME280;75566;42.698;23.346;2024-02-15T02:43:02;95959.63;;;2.70;60.44
85197;BME280;75566;42.698;23.346;2024-02-15T02:45:28;95962.88;;;2.74;60.66
85197;BME280;75566;42.698;23.346;2024-02-15T02:47:54;95968.34;;;2.59;60.63
85197;BME280;75566;42.698;23.346;2024-02-15T02:50:20;95962.66;;;2.57;61.02
85197;BME280;75566;42.698;23.346;2024-02-15T02:52:46;95969.00;;;2.54;61.31
85197;BME280;75566;42.698;23.346;2024-02-15T02:55:14;95977.75;;;2.49;61.49
85197;BME280;75566;42.698;23.346;2024-02-15T02:57:39;95973.84;;;2.50;61.27
85197;BME280;75566;42.698;23.346;2024-02-15T03:00:06;95969.00;;;2.54;61.04
85197;BME280;75566;42.698;23.346;2024-02-15T03:02:39;95979.75;;;2.34;61.36
85197;BME280;75566;42.698;23.346;2024-02-15T03:05:05;95983.00;;;2.38;61.42
85197;BME280;75566;42.698;23.346;2024-02-15T03:07:34;95970.69;;;2.37;61.87
85197;BME280;75566;42.698;23.346;2024-02-15T03:10:04;95968.06;;;2.57;61.53
85197;BME280;75566;42.698;23.346;2024-02-15T03:12:32;95974.97;;;2.58;60.76
85197;BME280;75566;42.698;23.346;2024-02-15T03:15:00;95978.53;;;2.35;61.42
85197;BME280;75566;42.698;23.346;2024-02-15T03:17:27;95977.88;;;2.40;61.36
85197;BME280;75566;42.698;23.346;2024-02-15T03:19:52;95976.94;;;2.28;61.89
85197;BME280;75566;42.698;23.346;2024-02-15T03:22:18;95984.69;;;2.35;61.81
85197;BME280;75566;42.698;23.346;2024-02-15T03:24:44;95980.03;;;2.36;61.68
85197;BME280;75566;42.698;23.346;2024-02-15T03:27:09;95993.59;;;2.41;61.60
85197;BME280;75566;42.698;23.346;2024-02-15T03:29:38;95987.09;;;2.33;62.12
85197;BME280;75566;42.698;23.346;2024-02-15T03:32:04;95996.88;;;2.31;61.76
85197;BME280;75566;42.698;23.346;2024-02-15T03:34:30;95996.69;;;2.19;61.88
85197;BME280;75566;42.698;23.346;2024-02-15T03:36:56;95991.00;;;2.17;61.90
85197;BME280;75566;42.698;23.346;2024-02-15T03:39:23;95990.34;;;2.08;62.35
85197;BME280;75566;42.698;23.346;2024-02-15T03:41:49;95989.25;;;2.14;63.00
85197;BME280;75566;42.698;23.346;2024-02-15T03:44:16;95992.59;;;2.09;62.82
85197;BME280;75566;42.698;23.346;2024-02-15T03:46:43;95995.22;;;2.18;62.54
85197;BME280;75566;42.698;23.346;2024-02-15T03:49:16;95982.81;;;2.12;62.89
85197;BME280;75566;42.698;23.346;2024-02-15T03:51:42;95988.88;;;2.07;63.13
85197;BME280;75566;42.698;23.346;2024-02-15T03:54:08;95992.78;;;2.06;63.16
85197;BME280;75566;42.698;23.346;2024-02-15T03:56:34;95984.88;;;2.02;62.52
85197;BME280;75566;42.698;23.346;2024-02-15T03:59:01;95989.53;;;2.01;63.13
85197;BME280;75566;42.698;23.346;2024-02-15T04:01:30;95987.75;;;1.98;63.13
85197;BME280;75566;42.698;23.346;2024-02-15T04:03:59;95985.34;;;2.00;63.19
85197;BME280;75566;42.698;23.346;2024-02-15T04:06:25;95991.19;;;1.99;63.05
85197;BME280;75566;42.698;23.346;2024-02-15T04:08:52;95990.28;;;2.02;62.95
85197;BME280;75566;42.698;23.346;2024-02-15T04:11:18;96000.59;;;2.03;62.72
85197;BME280;75566;42.698;23.346;2024-02-15T04:13:45;95999.56;;;2.01;63.18
85197;BME280;75566;42.698;23.346;2024-02-15T04:16:10;95988.16;;;2.06;62.90
85197;BME280;75566;42.698;23.346;2024-02-15T04:18:36;96000.69;;;2.09;62.68
85197;BME280;75566;42.698;23.346;2024-02-15T04:21:03;95995.84;;;2.13;62.57
85197;BME280;75566;42.698;23.346;2024-02-15T04:23:31;95994.28;;;2.07;62.49
85197;BME280;75566;42.698;23.346;2024-02-15T04:25:57;95992.59;;;2.09;62.68
85197;BME280;75566;42.698;23.346;2024-02-15T04:28:25;96001.16;;;2.08;62.33
85197;BME280;75566;42.698;23.346;2024-02-15T04:30:50;96005.53;;;2.05;62.28
85197;BME280;75566;42.698;23.346;2024-02-15T04:33:16;95997.53;;;1.96;62.45
85197;BME280;75566;42.698;23.346;2024-02-15T04:35:42;96002.19;;;1.95;62.34
85197;BME280;75566;42.698;23.346;2024-02-15T04:38:09;96002.38;;;1.92;63.52
85197;BME280;75566;42.698;23.346;2024-02-15T04:40:34;96001.06;;;2.02;62.92
85197;BME280;75566;42.698;23.346;2024-02-15T04:43:02;95999.28;;;1.99;62.34
85197;BME280;75566;42.698;23.346;2024-02-15T04:45:29;96006.75;;;2.04;63.10
85197;BME280;75566;42.698;23.346;2024-02-15T04:47:56;96016.31;;;2.05;62.95
85197;BME280;75566;42.698;23.346;2024-02-15T04:50:22;96018.91;;;1.99;63.12
85197;BME280;75566;42.698;23.346;2024-02-15T04:52:48;96013.91;;;2.07;63.01
85197;BME280;75566;42.698;23.346;2024-02-15T04:55:15;96028.06;;;2.02;62.90
85197;BME280;75566;42.698;23.346;2024-02-15T04:57:41;96030.38;;;1.94;63.45
85197;BME280;75566;42.698;23.346;2024-02-15T05:00:07;96032.22;;;2.03;63.22
85197;BME280;75566;42.698;23.346;2024-02-15T05:02:36;96030.28;;;2.03;63.04
85197;BME280;75566;42.698;23.346;2024-02-15T05:05:06;96028.69;;;2.12;62.97
85197;BME280;75566;42.698;23.346;2024-02-15T05:07:34;96031.59;;;1.93;63.32
85197;BME280;75566;42.698;23.346;2024-02-15T05:10:00;96039.84;;;1.90;63.25
85197;BME280;75566;42.698;23.346;2024-02-15T05:12:31;96045.44;;;2.01;63.69
85197;BME280;75566;42.698;23.346;2024-02-15T05:14:59;96046.72;;;1.91;63.49
85197;BME280;75566;42.698;23.346;2024-02-15T05:17:24;96041.34;;;1.91;63.56
85197;BME280;75566;42.698;23.346;2024-02-15T05:19:50;96043.28;;;1.90;63.24
85197;BME280;75566;42.698;23.346;2024-02-15T05:22:15;96039.84;;;1.90;63.53
85197;BME280;75566;42.698;23.346;2024-02-15T05:24:41;96041.88;;;1.80;64.02
85197;BME280;75566;42.698;23.346;2024-02-15T05:27:06;96050.09;;;1.86;63.89
85197;BME280;75566;42.698;23.346;2024-02-15T05:29:32;96051.84;;;1.89;63.36
85197;BME280;75566;42.698;23.346;2024-02-15T05:32:01;96053.69;;;1.82;63.60
85197;BME280;75566;42.698;23.346;2024-02-15T05:34:27;96060.13;;;1.85;64.11
85197;BME280;75566;42.698;23.346;2024-02-15T05:36:54;96044.84;;;1.82;63.60
85197;BME280;75566;42.698;23.346;2024-02-15T05:39:20;96063.19;;;1.78;63.61
85197;BME280;75566;42.698;23.346;2024-02-15T05:41:47;96062.88;;;1.76;64.13
85197;BME280;75566;42.698;23.346;2024-02-15T05:44:13;96078.25;;;1.85;64.06
85197;BME280;75566;42.698;23.346;2024-02-15T05:46:43;96069.13;;;1.82;63.73
85197;BME280;75566;42.698;23.346;2024-02-15T05:49:08;96072.69;;;1.88;63.67
85197;BME280;75566;42.698;23.346;2024-02-15T05:51:40;96072.41;;;1.86;63.09
85197;BME280;75566;42.698;23.346;2024-02-15T05:54:06;96059.75;;;1.77;63.76
85197;BME280;75566;42.698;23.346;2024-02-15T05:56:31;96071.66;;;1.86;63.43
85197;BME280;75566;42.698;23.346;2024-02-15T05:58:57;96083.06;;;1.80;63.90
85197;BME280;75566;42.698;23.346;2024-02-15T06:01:22;96075.75;;;1.81;63.31
85197;BME280;75566;42.698;23.346;2024-02-15T06:03:49;96082.84;;;1.93;63.77
85197;BME280;75566;42.698;23.346;2024-02-15T06:06:14;96077.53;;;1.99;62.93
85197;BME280;75566;42.698;23.346;2024-02-15T06:08:40;96084.69;;;1.87;63.84
85197;BME280;75566;42.698;23.346;2024-02-15T06:11:05;96090.28;;;1.98;62.80
85197;BME280;75566;42.698;23.346;2024-02-15T06:13:32;96099.41;;;2.01;63.29
85197;BME280;75566;42.698;23.346;2024-02-15T06:15:58;96087.13;;;2.00;63.96
85197;BME280;75566;42.698;23.346;2024-02-15T06:18:25;96092.06;;;2.01;63.11
85197;BME280;75566;42.698;23.346;2024-02-15T06:20:53;96100.38;;;2.13;63.00
85197;BME280;75566;42.698;23.346;2024-02-15T06:23:18;96105.31;;;2.14;62.57
85197;BME280;75566;42.698;23.346;2024-02-15T06:25:45;96107.44;;;2.10;62.65
85197;BME280;75566;42.698;23.346;2024-02-15T06:28:12;96108.00;;;2.14;62.85
85197;BME280;75566;42.698;23.346;2024-02-15T06:30:45;96111.78;;;2.08;62.87
85197;BME280;75566;42.698;23.346;2024-02-15T06:33:29;96127.81;;;2.11;63.00
85197;BME280;75566;42.698;23.346;2024-02-15T06:36:13;96112.28;;;2.06;63.23
85197;BME280;75566;42.698;23.346;2024-02-15T06:38:57;96127.06;;;2.11;62.76
85197;BME280;75566;42.698;23.346;2024-02-15T06:41:41;96120.94;;;2.10;62.68
85197;BME280;75566;42.698;23.346;2024-02-15T06:44:06;96114.16;;;2.15;62.43
85197;BME280;75566;42.698;23.346;2024-02-15T06:46:33;96123.25;;;2.17;62.86
85197;BME280;75566;42.698;23.346;2024-02-15T06:48:58;96131.97;;;1.97;63.04
85197;BME280;75566;42.698;23.346;2024-02-15T06:51:24;96128.81;;;1.99;63.42
85197;BME280;75566;42.698;23.346;2024-02-15T06:53:50;96130.59;;;2.02;63.54
85197;BME280;75566;42.698;23.346;2024-02-15T06:56:16;96128.22;;;2.19;63.11
85197;BME280;75566;42.698;23.346;2024-02-15T06:58:45;96121.22;;;2.12;62.56
85197;BME280;75566;42.698;23.346;2024-02-15T07:01:11;96122.88;;;2.10;63.64
85197;BME280;75566;42.698;23.346;2024-02-15T07:03:38;96127.47;;;2.18;62.76
85197;BME280;75566;42.698;23.346;2024-02-15T07:06:04;96131.84;;;2.31;62.49
85197;BME280;75566;42.698;23.346;2024-02-15T07:08:31;96118.16;;;2.19;62.39
85197;BME280;75566;42.698;23.346;2024-02-15T07:10:57;96110.78;;;2.20;62.50
85197;BME280;75566;42.698;23.346;2024-02-15T07:13:23;96114.63;;;2.43;61.78
85197;BME280;75566;42.698;23.346;2024-02-15T07:15:51;96117.34;;;2.58;61.69
85197;BME280;75566;42.698;23.346;2024-02-15T07:18:17;96115.56;;;2.40;62.07
85197;BME280;75566;42.698;23.346;2024-02-15T07:20:47;96116.78;;;2.39;61.90
85197;BME280;75566;42.698;23.346;2024-02-15T07:23:13;96104.66;;;2.49;61.40
85197;BME280;75566;42.698;23.346;2024-02-15T07:25:45;96112.59;;;2.68;61.13
85197;BME280;75566;42.698;23.346;2024-02-15T07:28:16;96114.06;;;2.69;60.89
85197;BME280;75566;42.698;23.346;2024-02-15T07:30:41;96111.47;;;2.74;60.28
85197;BME280;75566;42.698;23.346;2024-02-15T07:33:07;96113.25;;;2.77;60.32
85197;BME280;75566;42.698;23.346;2024-02-15T07:35:32;96100.19;;;2.76;61.13
85197;BME280;75566;42.698;23.346;2024-02-15T07:38:00;96102.31;;;2.87;59.95
85197;BME280;75566;42.698;23.346;2024-02-15T07:40:26;96102.47;;;2.98;60.41
85197;BME280;75566;42.698;23.346;2024-02-15T07:42:57;96103.59;;;3.06;59.55
85197;BME280;75566;42.698;23.346;2024-02-15T07:45:25;96110.28;;;3.11;59.74
85197;BME280;75566;42.698;23.346;2024-02-15T07:47:50;96102.72;;;3.15;59.70
85197;BME280;75566;42.698;23.346;2024-02-15T07:50:17;96106.00;;;3.04;59.44
85197;BME280;75566;42.698;23.346;2024-02-15T07:52:48;96093.69;;;3.18;58.24
85197;BME280;75566;42.698;23.346;2024-02-15T07:55:14;96104.81;;;3.05;59.71
85197;BME280;75566;42.698;23.346;2024-02-15T07:57:43;96104.03;;;3.19;59.53
85197;BME280;75566;42.698;23.346;2024-02-15T08:00:09;96097.22;;;3.24;58.52
85197;BME280;75566;42.698;23.346;2024-02-15T08:02:37;96093.56;;;3.27;58.43
85197;BME280;75566;42.698;23.346;2024-02-15T08:05:06;96098.00;;;3.45;59.23
85197;BME280;75566;42.698;23.346;2024-02-15T08:07:41;96096.03;;;3.66;58.42
85197;BME280;75566;42.698;23.346;2024-02-15T08:10:07;96096.44;;;3.59;57.57
85197;BME280;75566;42.698;23.346;2024-02-15T08:12:41;96096.84;;;3.52;57.76
85197;BME280;75566;42.698;23.346;2024-02-15T08:15:08;96082.72;;;3.62;57.93
85197;BME280;75566;42.698;23.346;2024-02-15T08:17:43;96086.66;;;3.61;58.68
85197;BME280;75566;42.698;23.346;2024-02-15T08:20:12;96084.75;;;3.68;58.02
85197;BME280;75566;42.698;23.346;2024-02-15T08:22:38;96077.28;;;4.03;57.33
85197;BME280;75566;42.698;23.346;2024-02-15T08:25:09;96082.00;;;4.09;56.10
85197;BME280;75566;42.698;23.346;2024-02-15T08:27:37;96082.63;;;4.24;55.20
85197;BME280;75566;42.698;23.346;2024-02-15T08:30:07;96078.50;;;4.29;55.83
85197;BME280;75566;42.698;23.346;2024-02-15T08:32:35;96082.38;;;4.22;55.26
85197;BME280;75566;42.698;23.346;2024-02-15T08:35:00;96078.00;;;4.56;55.24
85197;BME280;75566;42.698;23.346;2024-02-15T08:37:26;96077.81;;;4.34;54.10
85197;BME280;75566;42.698;23.346;2024-02-15T08:39:51;96091.63;;;4.36;54.06
85197;BME280;75566;42.698;23.346;2024-02-15T08:42:18;96078.66;;;4.45;54.10
85197;BME280;75566;42.698;23.346;2024-02-15T08:44:48;96088.47;;;4.43;54.88
85197;BME280;75566;42.698;23.346;2024-02-15T08:47:13;96083.09;;;4.48;54.49
85197;BME280;75566;42.698;23.346;2024-02-15T08:49:39;96072.78;;;4.79;53.94
85197;BME280;75566;42.698;23.346;2024-02-15T08:52:06;96073.69;;;5.02;53.85
85197;BME280;75566;42.698;23.346;2024-02-15T08:54:33;96078.03;;;5.31;52.31
85197;BME280;75566;42.698;23.346;2024-02-15T08:56:59;96070.34;;;5.24;52.45
85197;BME280;75566;42.698;23.346;2024-02-15T08:59:26;96069.97;;;5.42;52.21
85197;BME280;75566;42.698;23.346;2024-02-15T09:01:53;96073.19;;;5.46;52.34
85197;BME280;75566;42.698;23.346;2024-02-15T09:04:20;96068.38;;;5.24;52.91
85197;BME280;75566;42.698;23.346;2024-02-15T09:06:47;96072.31;;;5.23;52.46
85197;BME280;75566;42.698;23.346;2024-02-15T09:09:12;96066.94;;;4.92;52.71
85197;BME280;75566;42.698;23.346;2024-02-15T09:11:38;96062.72;;;5.28;51.87
85197;BME280;75566;42.698;23.346;2024-02-15T09:14:03;96066.72;;;5.38;51.81
85197;BME280;75566;42.698;23.346;2024-02-15T09:16:28;96063.56;;;5.51;51.79
85197;BME280;75566;42.698;23.346;2024-02-15T09:18:54;96063.94;;;5.76;50.89
85197;BME280;75566;42.698;23.346;2024-02-15T09:21:20;96055.25;;;5.66;51.18
85197;BME280;75566;42.698;23.346;2024-02-15T09:23:47;96053.00;;;5.59;50.88
85197;BME280;75566;42.698;23.346;2024-02-15T09:26:14;96055.53;;;5.79;51.00
85197;BME280;75566;42.698;23.346;2024-02-15T09:28:40;96057.38;;;5.99;50.06
85197;BME280;75566;42.698;23.346;2024-02-15T09:31:06;96050.91;;;5.91;50.05
85197;BME280;75566;42.698;23.346;2024-02-15T09:33:31;96050.88;;;5.80;49.97
85197;BME280;75566;42.698;23.346;2024-02-15T09:35:57;96063.03;;;6.01;49.80
85197;BME280;75566;42.698;23.346;2024-02-15T09:38:22;96054.44;;;6.25;48.63
85197;BME280;75566;42.698;23.346;2024-02-15T09:40:50;96047.59;;;5.64;49.66
85197;BME280;75566;42.698;23.346;2024-02-15T09:43:16;96038.59;;;6.01;49.30
85197;BME280;75566;42.698;23.346;2024-02-15T09:45:42;96043.31;;;6.01;48.47
85197;BME280;75566;42.698;23.346;2024-02-15T09:48:10;96038.78;;;5.86;48.61
85197;BME280;75566;42.698;23.346;2024-02-15T09:50:38;96042.13;;;6.30;49.33
85197;BME280;75566;42.698;23.346;2024-02-15T09:53:04;96038.44;;;6.56;48.31
85197;BME280;75566;42.698;23.346;2024-02-15T09:55:34;96038.66;;;6.41;48.05
85197;BME280;75566;42.698;23.346;2024-02-15T09:58:00;96039.41;;;6.58;47.83
85197;BME280;75566;42.698;23.346;2024-02-15T10:00:26;96036.66;;;6.36;48.45
85197;BME280;75566;42.698;23.346;2024-02-15T10:02:52;96037.88;;;6.12;48.87
85197;BME280;75566;42.698;23.346;2024-02-15T10:05:21;96024.56;;;6.48;48.80
85197;BME280;75566;42.698;23.346;2024-02-15T10:07:48;96020.84;;;6.96;46.62
85197;BME280;75566;42.698;23.346;2024-02-15T10:10:24;96019.59;;;6.86;46.96
85197;BME280;75566;42.698;23.346;2024-02-15T10:12:52;96012.44;;;6.88;47.20
85197;BME280;75566;42.698;23.346;2024-02-15T10:15:35;96013.38;;;7.19;46.93
85197;BME280;75566;42.698;23.346;2024-02-15T10:18:08;96007.81;;;7.47;46.14
85197;BME280;75566;42.698;23.346;2024-02-15T10:20:36;96005.78;;;6.95;47.44
85197;BME280;75566;42.698;23.346;2024-02-15T10:23:09;96005.06;;;6.61;46.19
85197;BME280;75566;42.698;23.346;2024-02-15T10:25:36;96004.06;;;6.58;47.69
85197;BME280;75566;42.698;23.346;2024-02-15T10:28:05;95997.41;;;6.70;47.60
85197;BME280;75566;42.698;23.346;2024-02-15T10:30:34;95986.72;;;6.95;46.39
85197;BME280;75566;42.698;23.346;2024-02-15T10:33:01;95991.13;;;7.15;46.10
85197;BME280;75566;42.698;23.346;2024-02-15T10:35:26;95991.09;;;7.21;46.12
85197;BME280;75566;42.698;23.346;2024-02-15T10:37:52;95995.28;;;7.33;45.33
85197;BME280;75566;42.698;23.346;2024-02-15T10:40:29;95980.97;;;7.16;46.10
85197;BME280;75566;42.698;23.346;2024-02-15T10:42:58;95983.69;;;7.21;46.53
85197;BME280;75566;42.698;23.346;2024-02-15T10:45:24;95980.03;;;6.96;45.98
85197;BME280;75566;42.698;23.346;2024-02-15T10:47:50;95978.03;;;7.02;46.20
85197;BME280;75566;42.698;23.346;2024-02-15T10:50:16;95970.63;;;7.03;46.31
85197;BME280;75566;42.698;23.346;2024-02-15T10:52:57;95967.63;;;7.12;46.30
85197;BME280;75566;42.698;23.346;2024-02-15T10:58:32;95968.38;;;7.13;46.64
85197;BME280;75566;42.698;23.346;2024-02-15T11:01:00;95967.81;;;7.31;44.85
85197;BME280;75566;42.698;23.346;2024-02-15T11:03:47;95961.25;;;7.62;44.51
85197;BME280;75566;42.698;23.346;2024-02-15T11:06:17;95959.13;;;7.85;43.58
85197;BME280;75566;42.698;23.346;2024-02-15T11:08:44;95960.53;;;7.56;45.05
85197;BME280;75566;42.698;23.346;2024-02-15T11:11:10;95949.00;;;7.80;43.46
85197;BME280;75566;42.698;23.346;2024-02-15T11:13:39;95948.63;;;8.01;43.24
85197;BME280;75566;42.698;23.346;2024-02-15T11:16:05;95954.63;;;7.52;44.58
85197;BME280;75566;42.698;23.346;2024-02-15T11:18:48;95945.31;;;7.78;44.91
85197;BME280;75566;42.698;23.346;2024-02-15T11:21:52;95941.88;;;8.07;44.20
85197;BME280;75566;42.698;23.346;2024-02-15T11:24:30;95950.16;;;8.26;43.83
85197;BME280;75566;42.698;23.346;2024-02-15T11:27:01;95946.13;;;8.33;43.26
85197;BME280;75566;42.698;23.346;2024-02-15T11:29:49;95944.94;;;8.59;43.18
85197;BME280;75566;42.698;23.346;2024-02-15T11:35:03;95944.69;;;8.87;42.84
85197;BME280;75566;42.698;23.346;2024-02-15T11:43:07;95942.06;;;8.51;42.82
85197;BME280;75566;42.698;23.346;2024-02-15T11:45:34;95933.94;;;8.40;44.03
85197;BME280;75566;42.698;23.346;2024-02-15T11:48:07;95936.06;;;8.83;43.31
85197;BME280;75566;42.698;23.346;2024-02-15T11:50:36;95935.69;;;8.92;42.34
85197;BME280;75566;42.698;23.346;2024-02-15T11:53:06;95930.31;;;8.86;43.37
85197;BME280;75566;42.698;23.346;2024-02-15T11:55:37;95930.66;;;9.21;42.67
85197;BME280;75566;42.698;23.346;2024-02-15T11:58:04;95932.97;;;9.35;42.77
85197;BME280;75566;42.698;23.346;2024-02-15T12:00:30;95922.19;;;9.24;43.14
85197;BME280;75566;42.698;23.346;2024-02-15T12:03:16;95925.38;;;9.47;42.04
85197;BME280;75566;42.698;23.346;2024-02-15T12:06:00;95918.53;;;9.92;41.58
85197;BME280;75566;42.698;23.346;2024-02-15T12:08:45;95918.13;;;9.31;42.99
85197;BME280;75566;42.698;23.346;2024-02-15T12:11:29;95916.66;;;9.49;43.04
85197;BME280;75566;42.698;23.346;2024-02-15T12:17:35;95917.63;;;9.70;41.01
85197;BME280;75566;42.698;23.346;2024-02-15T12:20:19;95909.34;;;9.38;42.06
85197;BME280;75566;42.698;23.346;2024-02-15T12:22:51;95910.75;;;9.83;41.57
85197;BME280;75566;42.698;23.346;2024-02-15T12:25:18;95906.84;;;10.10;41.15
85197;BME280;75566;42.698;23.346;2024-02-15T12:27:47;95906.41;;;10.06;40.05
85197;BME280;75566;42.698;23.346;2024-02-15T12:30:18;95896.31;;;10.33;40.53
85197;BME280;75566;42.698;23.346;2024-02-15T12:32:48;95897.91;;;10.55;40.55
85197;BME280;75566;42.698;23.346;2024-02-15T12:35:16;95899.81;;;11.14;39.43
85197;BME280;75566;42.698;23.346;2024-02-15T12:42:42;95896.75;;;10.51;40.07
85197;BME280;75566;42.698;23.346;2024-02-15T12:45:15;95876.66;;;10.75;39.26
85197;BME280;75566;42.698;23.346;2024-02-15T12:47:43;95890.56;;;10.90;39.98
85197;BME280;75566;42.698;23.346;2024-02-15T12:50:19;95890.53;;;11.04;38.98
85197;BME280;75566;42.698;23.346;2024-02-15T12:52:49;95890.03;;;10.79;38.91
85197;BME280;75566;42.698;23.346;2024-02-15T12:55:22;95882.91;;;11.36;39.74
85197;BME280;75566;42.698;23.346;2024-02-15T12:57:54;95875.88;;;11.62;36.84
85197;BME280;75566;42.698;23.346;2024-02-15T13:00:26;95878.75;;;11.56;37.84
85197;BME280;75566;42.698;23.346;2024-02-15T13:02:58;95875.84;;;11.41;37.09
85197;BME280;75566;42.698;23.346;2024-02-15T13:05:25;95876.78;;;11.44;38.58
85197;BME280;75566;42.698;23.346;2024-02-15T13:07:53;95874.91;;;11.73;38.52
85197;BME280;75566;42.698;23.346;2024-02-15T13:10:21;95876.28;;;12.01;36.35
85197;BME280;75566;42.698;23.346;2024-02-15T13:12:47;95880.09;;;11.63;37.71
85197;BME280;75566;42.698;23.346;2024-02-15T13:15:14;95881.91;;;11.00;38.55
85197;BME280;75566;42.698;23.346;2024-02-15T13:17:44;95878.47;;;10.86;39.22
85197;BME280;75566;42.698;23.346;2024-02-15T13:20:11;95873.69;;;11.00;38.79
85197;BME280;75566;42.698;23.346;2024-02-15T13:22:42;95877.25;;;11.21;38.78
85197;BME280;75566;42.698;23.346;2024-02-15T13:25:09;95879.47;;;10.43;39.58